sensor_id;sensor_type;location;lat;lon;timestamp;temperature;humidity
44990;DHT22;30723;51.206;3.326;2023-08-06T00:01:01;15.60;99.90
44990;DHT22;30723;51.206;3.326;2023-08-06T00:03:27;15.60;99.90
44990;DHT22;30723;51.206;3.326;2023-08-06T00:05:53;15.60;99.90
44990;DHT22;30723;51.206;3.326;2023-08-06T00:08:20;15.60;99.90
44990;DHT22;30723;51.206;3.326;2023-08-06T00:10:48;15.60;99.90
44990;DHT22;30723;51.206;3.326;2023-08-06T00:13:15;15.60;99.90
44990;DHT22;30723;51.206;3.326;2023-08-06T00:15:41;15.50;99.90
44990;DHT22;30723;51.206;3.326;2023-08-06T00:18:07;15.60;99.90
44990;DHT22;30723;51.206;3.326;2023-08-06T00:20:33;15.60;99.90
44990;DHT22;30723;51.206;3.326;2023-08-06T00:22:59;15.60;99.90
44990;DHT22;30723;51.206;3.326;2023-08-06T00:25:26;15.60;99.90
44990;DHT22;30723;51.206;3.326;2023-08-06T00:27:53;15.60;99.90
44990;DHT22;30723;51.206;3.326;2023-08-06T00:30:20;15.60;99.90
44990;DHT22;30723;51.206;3.326;2023-08-06T00:32:47;15.60;99.90
44990;DHT22;30723;51.206;3.326;2023-08-06T00:35:14;15.70;99.90
44990;DHT22;30723;51.206;3.326;2023-08-06T00:37:40;15.70;99.90
44990;DHT22;30723;51.206;3.326;2023-08-06T00:40:08;15.60;99.90
44990;DHT22;30723;51.206;3.326;2023-08-06T00:42:35;15.50;99.90
44990;DHT22;30723;51.206;3.326;2023-08-06T00:45:01;15.30;99.90
44990;DHT22;30723;51.206;3.326;2023-08-06T00:47:28;15.20;99.90
44990;DHT22;30723;51.206;3.326;2023-08-06T00:49:55;15.20;99.90
44990;DHT22;30723;51.206;3.326;2023-08-06T00:52:22;15.10;99.90
44990;DHT22;30723;51.206;3.326;2023-08-06T00:54:49;15.10;99.90
44990;DHT22;30723;51.206;3.326;2023-08-06T00:57:17;15.00;99.90
44990;DHT22;30723;51.206;3.326;2023-08-06T00:59:44;14.80;99.90
44990;DHT22;30723;51.206;3.326;2023-08-06T01:02:11;14.70;99.90
44990;DHT22;30723;51.206;3.326;2023-08-06T01:04:36;14.70;99.90
44990;DHT22;30723;51.206;3.326;2023-08-06T01:15:39;14.80;99.90
44990;DHT22;30723;51.206;3.326;2023-08-06T01:18:08;14.90;99.90
44990;DHT22;30723;51.206;3.326;2023-08-06T01:20:35;15.00;99.90
44990;DHT22;30723;51.206;3.326;2023-08-06T01:23:02;15.00;99.90
44990;DHT22;30723;51.206;3.326;2023-08-06T01:31:32;15.20;99.90
44990;DHT22;30723;51.206;3.326;2023-08-06T01:34:01;15.20;99.90
44990;DHT22;30723;51.206;3.326;2023-08-06T01:36:29;15.30;99.90
44990;DHT22;30723;51.206;3.326;2023-08-06T01:38:55;15.30;99.90
44990;DHT22;30723;51.206;3.326;2023-08-06T01:41:23;15.10;99.90
44990;DHT22;30723;51.206;3.326;2023-08-06T01:43:50;15.10;99.90
44990;DHT22;30723;51.206;3.326;2023-08-06T01:46:17;15.00;99.90
44990;DHT22;30723;51.206;3.326;2023-08-06T01:48:43;15.00;99.90
44990;DHT22;30723;51.206;3.326;2023-08-06T01:51:10;15.00;99.90
44990;DHT22;30723;51.206;3.326;2023-08-06T01:53:37;15.00;99.90
44990;DHT22;30723;51.206;3.326;2023-08-06T01:56:05;15.00;99.90
44990;DHT22;30723;51.206;3.326;2023-08-06T01:58:31;14.90;99.90
44990;DHT22;30723;51.206;3.326;2023-08-06T02:00:57;14.90;99.90
44990;DHT22;30723;51.206;3.326;2023-08-06T02:03:23;14.80;99.90
44990;DHT22;30723;51.206;3.326;2023-08-06T02:05:50;14.90;99.90
44990;DHT22;30723;51.206;3.326;2023-08-06T02:08:16;14.90;99.90
44990;DHT22;30723;51.206;3.326;2023-08-06T02:10:44;14.90;99.90
44990;DHT22;30723;51.206;3.326;2023-08-06T02:13:11;14.90;99.90
44990;DHT22;30723;51.206;3.326;2023-08-06T02:15:45;14.90;99.90
44990;DHT22;30723;51.206;3.326;2023-08-06T02:18:14;15.00;99.90
44990;DHT22;30723;51.206;3.326;2023-08-06T02:20:42;15.00;99.90
44990;DHT22;30723;51.206;3.326;2023-08-06T02:23:09;15.00;99.90
44990;DHT22;30723;51.206;3.326;2023-08-06T02:25:36;15.00;99.90
44990;DHT22;30723;51.206;3.326;2023-08-06T02:28:04;15.00;99.90
44990;DHT22;30723;51.206;3.326;2023-08-06T02:30:30;15.10;99.90
44990;DHT22;30723;51.206;3.326;2023-08-06T02:32:57;15.00;99.90
44990;DHT22;30723;51.206;3.326;2023-08-06T02:35:23;15.00;99.90
44990;DHT22;30723;51.206;3.326;2023-08-06T02:37:50;15.00;99.90
44990;DHT22;30723;51.206;3.326;2023-08-06T02:40:17;15.00;99.90
44990;DHT22;30723;51.206;3.326;2023-08-06T02:42:44;14.90;99.90
44990;DHT22;30723;51.206;3.326;2023-08-06T02:45:10;14.90;99.90
44990;DHT22;30723;51.206;3.326;2023-08-06T02:47:37;14.80;99.90
44990;DHT22;30723;51.206;3.326;2023-08-06T02:50:04;14.80;99.90
44990;DHT22;30723;51.206;3.326;2023-08-06T02:52:31;14.70;99.90
44990;DHT22;30723;51.206;3.326;2023-08-06T02:54:57;14.70;99.90
44990;DHT22;30723;51.206;3.326;2023-08-06T02:57:26;14.70;99.90
44990;DHT22;30723;51.206;3.326;2023-08-06T02:59:53;14.70;99.90
44990;DHT22;30723;51.206;3.326;2023-08-06T03:02:19;14.70;99.90
44990;DHT22;30723;51.206;3.326;2023-08-06T03:04:45;14.70;99.90
44990;DHT22;30723;51.206;3.326;2023-08-06T03:07:12;14.70;99.90
44990;DHT22;30723;51.206;3.326;2023-08-06T03:09:40;14.70;99.90
44990;DHT22;30723;51.206;3.326;2023-08-06T03:12:08;14.70;99.90
44990;DHT22;30723;51.206;3.326;2023-08-06T03:14:35;14.70;99.90
44990;DHT22;30723;51.206;3.326;2023-08-06T03:17:02;14.70;99.90
44990;DHT22;30723;51.206;3.326;2023-08-06T03:19:29;14.80;99.90
44990;DHT22;30723;51.206;3.326;2023-08-06T03:21:56;14.70;99.90
44990;DHT22;30723;51.206;3.326;2023-08-06T03:24:22;14.70;99.90
44990;DHT22;30723;51.206;3.326;2023-08-06T03:26:49;14.70;99.90
44990;DHT22;30723;51.206;3.326;2023-08-06T03:29:15;14.70;99.90
44990;DHT22;30723;51.206;3.326;2023-08-06T03:31:41;14.70;99.90
44990;DHT22;30723;51.206;3.326;2023-08-06T03:34:07;14.70;99.90
44990;DHT22;30723;51.206;3.326;2023-08-06T03:36:33;14.70;99.90
44990;DHT22;30723;51.206;3.326;2023-08-06T03:38:58;14.70;99.90
44990;DHT22;30723;51.206;3.326;2023-08-06T03:41:25;14.60;99.90
44990;DHT22;30723;51.206;3.326;2023-08-06T03:43:51;14.70;99.90
44990;DHT22;30723;51.206;3.326;2023-08-06T03:46:16;14.60;99.90
44990;DHT22;30723;51.206;3.326;2023-08-06T03:48:42;14.50;99.90
44990;DHT22;30723;51.206;3.326;2023-08-06T03:51:08;14.50;99.90
44990;DHT22;30723;51.206;3.326;2023-08-06T03:53:35;14.60;99.90
44990;DHT22;30723;51.206;3.326;2023-08-06T03:56:01;14.60;99.90
44990;DHT22;30723;51.206;3.326;2023-08-06T03:58:28;14.60;99.90
44990;DHT22;30723;51.206;3.326;2023-08-06T04:01:17;14.70;99.90
44990;DHT22;30723;51.206;3.326;2023-08-06T04:03:43;14.70;99.90
44990;DHT22;30723;51.206;3.326;2023-08-06T04:06:10;14.70;99.90
44990;DHT22;30723;51.206;3.326;2023-08-06T04:08:37;14.70;99.90
44990;DHT22;30723;51.206;3.326;2023-08-06T04:11:04;14.70;99.90
44990;DHT22;30723;51.206;3.326;2023-08-06T04:13:31;14.80;99.90
44990;DHT22;30723;51.206;3.326;2023-08-06T04:16:02;14.80;99.90
44990;DHT22;30723;51.206;3.326;2023-08-06T04:18:29;14.90;99.90
44990;DHT22;30723;51.206;3.326;2023-08-06T04:20:55;14.80;99.90
44990;DHT22;30723;51.206;3.326;2023-08-06T04:23:24;14.80;99.90
44990;DHT22;30723;51.206;3.326;2023-08-06T04:25:51;14.70;99.90
44990;DHT22;30723;51.206;3.326;2023-08-06T04:28:19;14.70;99.90
44990;DHT22;30723;51.206;3.326;2023-08-06T04:30:45;14.60;99.90
44990;DHT22;30723;51.206;3.326;2023-08-06T04:33:12;14.60;99.90
44990;DHT22;30723;51.206;3.326;2023-08-06T04:35:39;14.60;99.90
44990;DHT22;30723;51.206;3.326;2023-08-06T04:38:05;14.60;99.90
44990;DHT22;30723;51.206;3.326;2023-08-06T04:40:34;14.70;99.90
44990;DHT22;30723;51.206;3.326;2023-08-06T04:43:02;14.60;99.90
44990;DHT22;30723;51.206;3.326;2023-08-06T04:45:29;14.70;99.90
44990;DHT22;30723;51.206;3.326;2023-08-06T04:47:55;14.70;99.90
44990;DHT22;30723;51.206;3.326;2023-08-06T04:50:22;14.60;99.90
44990;DHT22;30723;51.206;3.326;2023-08-06T04:52:48;14.70;99.90
44990;DHT22;30723;51.206;3.326;2023-08-06T04:55:15;14.80;99.90
44990;DHT22;30723;51.206;3.326;2023-08-06T04:57:42;14.80;99.90
44990;DHT22;30723;51.206;3.326;2023-08-06T05:00:09;14.80;99.90
44990;DHT22;30723;51.206;3.326;2023-08-06T05:02:36;14.90;99.90
44990;DHT22;30723;51.206;3.326;2023-08-06T05:05:05;14.90;99.90
44990;DHT22;30723;51.206;3.326;2023-08-06T05:07:32;14.90;99.90
44990;DHT22;30723;51.206;3.326;2023-08-06T05:09:59;14.80;99.90
44990;DHT22;30723;51.206;3.326;2023-08-06T05:12:26;14.80;99.90
44990;DHT22;30723;51.206;3.326;2023-08-06T05:14:53;14.70;99.90
44990;DHT22;30723;51.206;3.326;2023-08-06T05:17:20;14.70;99.90
44990;DHT22;30723;51.206;3.326;2023-08-06T05:19:46;14.60;99.90
44990;DHT22;30723;51.206;3.326;2023-08-06T05:22:13;14.50;99.90
44990;DHT22;30723;51.206;3.326;2023-08-06T05:24:40;14.50;99.90
44990;DHT22;30723;51.206;3.326;2023-08-06T05:27:07;14.50;99.90
44990;DHT22;30723;51.206;3.326;2023-08-06T05:29:34;14.50;99.90
44990;DHT22;30723;51.206;3.326;2023-08-06T05:32:00;14.60;99.90
44990;DHT22;30723;51.206;3.326;2023-08-06T05:34:26;14.60;99.90
44990;DHT22;30723;51.206;3.326;2023-08-06T05:36:53;14.60;99.90
44990;DHT22;30723;51.206;3.326;2023-08-06T05:39:19;14.60;99.90
44990;DHT22;30723;51.206;3.326;2023-08-06T05:41:46;14.50;99.90
44990;DHT22;30723;51.206;3.326;2023-08-06T05:44:13;14.60;99.90
44990;DHT22;30723;51.206;3.326;2023-08-06T05:46:39;14.60;99.90
44990;DHT22;30723;51.206;3.326;2023-08-06T05:49:06;14.70;99.90
44990;DHT22;30723;51.206;3.326;2023-08-06T05:51:33;14.80;99.90
44990;DHT22;30723;51.206;3.326;2023-08-06T05:53:59;14.80;99.90
44990;DHT22;30723;51.206;3.326;2023-08-06T05:56:26;14.80;99.90
44990;DHT22;30723;51.206;3.326;2023-08-06T05:58:53;14.80;99.90
44990;DHT22;30723;51.206;3.326;2023-08-06T06:01:20;14.70;99.90
44990;DHT22;30723;51.206;3.326;2023-08-06T06:03:46;14.70;99.90
44990;DHT22;30723;51.206;3.326;2023-08-06T06:06:12;14.80;99.90
44990;DHT22;30723;51.206;3.326;2023-08-06T06:08:39;14.80;99.90
44990;DHT22;30723;51.206;3.326;2023-08-06T06:11:05;14.90;99.90
44990;DHT22;30723;51.206;3.326;2023-08-06T06:13:32;14.90;99.90
44990;DHT22;30723;51.206;3.326;2023-08-06T06:15:59;15.00;99.90
44990;DHT22;30723;51.206;3.326;2023-08-06T06:18:26;15.00;99.90
44990;DHT22;30723;51.206;3.326;2023-08-06T06:20:52;15.00;99.90
44990;DHT22;30723;51.206;3.326;2023-08-06T06:23:19;14.90;99.90
44990;DHT22;30723;51.206;3.326;2023-08-06T06:25:49;14.90;99.90
44990;DHT22;30723;51.206;3.326;2023-08-06T06:28:20;14.90;99.90
44990;DHT22;30723;51.206;3.326;2023-08-06T06:30:47;14.90;99.90
44990;DHT22;30723;51.206;3.326;2023-08-06T06:33:14;15.00;99.90
44990;DHT22;30723;51.206;3.326;2023-08-06T06:35:41;15.00;99.90
44990;DHT22;30723;51.206;3.326;2023-08-06T06:38:08;15.00;99.90
44990;DHT22;30723;51.206;3.326;2023-08-06T06:40:35;15.10;99.90
44990;DHT22;30723;51.206;3.326;2023-08-06T06:43:01;15.10;99.90
44990;DHT22;30723;51.206;3.326;2023-08-06T06:45:28;15.20;99.90
44990;DHT22;30723;51.206;3.326;2023-08-06T06:47:54;15.20;99.90
44990;DHT22;30723;51.206;3.326;2023-08-06T06:50:21;15.20;99.90
44990;DHT22;30723;51.206;3.326;2023-08-06T06:52:48;15.30;99.90
44990;DHT22;30723;51.206;3.326;2023-08-06T06:55:15;15.20;99.90
44990;DHT22;30723;51.206;3.326;2023-08-06T06:57:41;15.10;99.90
44990;DHT22;30723;51.206;3.326;2023-08-06T07:00:09;15.10;99.90
44990;DHT22;30723;51.206;3.326;2023-08-06T07:02:35;15.00;99.90
44990;DHT22;30723;51.206;3.326;2023-08-06T07:05:02;15.00;99.90
44990;DHT22;30723;51.206;3.326;2023-08-06T07:07:29;15.00;99.90
44990;DHT22;30723;51.206;3.326;2023-08-06T07:09:56;15.10;99.90
44990;DHT22;30723;51.206;3.326;2023-08-06T07:12:22;15.00;99.90
44990;DHT22;30723;51.206;3.326;2023-08-06T07:14:50;15.00;99.90
44990;DHT22;30723;51.206;3.326;2023-08-06T07:17:17;15.00;99.90
44990;DHT22;30723;51.206;3.326;2023-08-06T07:19:44;15.10;99.90
44990;DHT22;30723;51.206;3.326;2023-08-06T07:22:11;15.10;99.90
44990;DHT22;30723;51.206;3.326;2023-08-06T07:24:38;15.30;99.90
44990;DHT22;30723;51.206;3.326;2023-08-06T07:27:06;15.40;99.90
44990;DHT22;30723;51.206;3.326;2023-08-06T07:29:32;15.40;99.90
44990;DHT22;30723;51.206;3.326;2023-08-06T07:31:59;15.40;99.90
44990;DHT22;30723;51.206;3.326;2023-08-06T07:34:26;15.30;99.90
44990;DHT22;30723;51.206;3.326;2023-08-06T07:36:52;15.30;99.90
44990;DHT22;30723;51.206;3.326;2023-08-06T07:39:18;15.30;99.90
44990;DHT22;30723;51.206;3.326;2023-08-06T07:41:44;15.30;99.90
44990;DHT22;30723;51.206;3.326;2023-08-06T07:44:12;15.20;99.90
44990;DHT22;30723;51.206;3.326;2023-08-06T07:46:39;15.20;99.90
44990;DHT22;30723;51.206;3.326;2023-08-06T07:49:06;15.20;99.90
44990;DHT22;30723;51.206;3.326;2023-08-06T07:51:32;15.10;99.90
44990;DHT22;30723;51.206;3.326;2023-08-06T07:53:59;15.30;99.90
44990;DHT22;30723;51.206;3.326;2023-08-06T07:56:27;15.40;99.90
44990;DHT22;30723;51.206;3.326;2023-08-06T07:58:53;15.30;99.90
44990;DHT22;30723;51.206;3.326;2023-08-06T08:01:19;15.40;99.90
44990;DHT22;30723;51.206;3.326;2023-08-06T08:03:44;15.50;99.90
44990;DHT22;30723;51.206;3.326;2023-08-06T08:06:12;15.50;99.90
44990;DHT22;30723;51.206;3.326;2023-08-06T08:08:38;15.50;99.90
44990;DHT22;30723;51.206;3.326;2023-08-06T08:11:06;15.40;99.90
44990;DHT22;30723;51.206;3.326;2023-08-06T08:13:36;15.40;99.90
44990;DHT22;30723;51.206;3.326;2023-08-06T08:16:03;15.50;99.90
44990;DHT22;30723;51.206;3.326;2023-08-06T08:18:29;15.40;99.90
44990;DHT22;30723;51.206;3.326;2023-08-06T08:20:57;15.40;99.90
44990;DHT22;30723;51.206;3.326;2023-08-06T08:23:22;15.20;99.90
44990;DHT22;30723;51.206;3.326;2023-08-06T08:25:48;15.00;99.90
44990;DHT22;30723;51.206;3.326;2023-08-06T08:28:15;15.00;99.90
44990;DHT22;30723;51.206;3.326;2023-08-06T08:30:42;15.10;99.90
44990;DHT22;30723;51.206;3.326;2023-08-06T08:33:09;15.20;99.90
44990;DHT22;30723;51.206;3.326;2023-08-06T08:35:37;15.20;99.90
44990;DHT22;30723;51.206;3.326;2023-08-06T08:38:03;15.20;99.90
44990;DHT22;30723;51.206;3.326;2023-08-06T08:40:32;15.20;99.90
44990;DHT22;30723;51.206;3.326;2023-08-06T08:43:20;15.00;99.90
44990;DHT22;30723;51.206;3.326;2023-08-06T08:45:51;14.90;99.90
44990;DHT22;30723;51.206;3.326;2023-08-06T08:48:18;14.80;99.90
44990;DHT22;30723;51.206;3.326;2023-08-06T08:50:46;14.80;99.90
44990;DHT22;30723;51.206;3.326;2023-08-06T08:53:18;14.80;99.90
44990;DHT22;30723;51.206;3.326;2023-08-06T08:55:48;15.00;99.90
44990;DHT22;30723;51.206;3.326;2023-08-06T08:58:15;15.10;99.90
44990;DHT22;30723;51.206;3.326;2023-08-06T09:01:01;15.10;99.90
44990;DHT22;30723;51.206;3.326;2023-08-06T09:03:27;15.10;99.90
44990;DHT22;30723;51.206;3.326;2023-08-06T09:05:54;15.20;99.90
44990;DHT22;30723;51.206;3.326;2023-08-06T09:08:27;15.10;99.90
44990;DHT22;30723;51.206;3.326;2023-08-06T09:10:54;15.10;99.90
44990;DHT22;30723;51.206;3.326;2023-08-06T09:13:21;15.00;99.90
44990;DHT22;30723;51.206;3.326;2023-08-06T09:15:46;15.10;99.90
44990;DHT22;30723;51.206;3.326;2023-08-06T09:18:12;15.20;99.90
44990;DHT22;30723;51.206;3.326;2023-08-06T09:20:39;15.10;99.90
44990;DHT22;30723;51.206;3.326;2023-08-06T09:23:10;15.10;99.90
44990;DHT22;30723;51.206;3.326;2023-08-06T09:25:40;15.20;99.90
44990;DHT22;30723;51.206;3.326;2023-08-06T09:28:07;15.30;99.90
44990;DHT22;30723;51.206;3.326;2023-08-06T09:30:36;15.30;99.90
44990;DHT22;30723;51.206;3.326;2023-08-06T09:33:07;15.40;99.90
44990;DHT22;30723;51.206;3.326;2023-08-06T09:35:37;15.60;99.90
44990;DHT22;30723;51.206;3.326;2023-08-06T09:38:08;15.80;99.90
44990;DHT22;30723;51.206;3.326;2023-08-06T09:40:36;16.00;99.90
44990;DHT22;30723;51.206;3.326;2023-08-06T09:43:04;16.20;99.90
44990;DHT22;30723;51.206;3.326;2023-08-06T09:45:34;16.30;99.90
44990;DHT22;30723;51.206;3.326;2023-08-06T09:48:04;16.40;99.90
44990;DHT22;30723;51.206;3.326;2023-08-06T09:50:32;16.50;99.90
44990;DHT22;30723;51.206;3.326;2023-08-06T09:53:00;16.70;99.90
44990;DHT22;30723;51.206;3.326;2023-08-06T09:55:27;16.90;99.90
44990;DHT22;30723;51.206;3.326;2023-08-06T09:57:54;16.90;99.90
44990;DHT22;30723;51.206;3.326;2023-08-06T10:00:22;16.80;99.90
44990;DHT22;30723;51.206;3.326;2023-08-06T10:02:53;16.80;99.90
44990;DHT22;30723;51.206;3.326;2023-08-06T10:05:24;16.80;99.90
44990;DHT22;30723;51.206;3.326;2023-08-06T10:07:52;16.90;99.90
44990;DHT22;30723;51.206;3.326;2023-08-06T10:10:19;16.90;99.90
44990;DHT22;30723;51.206;3.326;2023-08-06T10:12:50;16.70;99.90
44990;DHT22;30723;51.206;3.326;2023-08-06T10:15:22;16.60;99.90
44990;DHT22;30723;51.206;3.326;2023-08-06T10:17:54;16.60;99.90
44990;DHT22;30723;51.206;3.326;2023-08-06T10:20:22;16.50;99.90
44990;DHT22;30723;51.206;3.326;2023-08-06T10:23:06;16.80;99.90
44990;DHT22;30723;51.206;3.326;2023-08-06T10:25:40;17.10;99.90
44990;DHT22;30723;51.206;3.326;2023-08-06T10:28:10;17.00;99.90
44990;DHT22;30723;51.206;3.326;2023-08-06T10:30:43;16.90;99.90
44990;DHT22;30723;51.206;3.326;2023-08-06T10:33:10;17.00;99.90
44990;DHT22;30723;51.206;3.326;2023-08-06T10:35:50;16.80;99.90
44990;DHT22;30723;51.206;3.326;2023-08-06T10:38:25;16.60;99.90
44990;DHT22;30723;51.206;3.326;2023-08-06T10:43:28;16.30;99.90
44990;DHT22;30723;51.206;3.326;2023-08-06T10:45:55;16.20;99.90
44990;DHT22;30723;51.206;3.326;2023-08-06T10:51:00;15.70;99.90
44990;DHT22;30723;51.206;3.326;2023-08-06T10:53:28;15.70;99.90
44990;DHT22;30723;51.206;3.326;2023-08-06T10:55:54;15.70;99.90
44990;DHT22;30723;51.206;3.326;2023-08-06T10:58:21;15.80;99.90
44990;DHT22;30723;51.206;3.326;2023-08-06T11:00:48;15.90;99.90
44990;DHT22;30723;51.206;3.326;2023-08-06T11:03:16;16.00;99.90
44990;DHT22;30723;51.206;3.326;2023-08-06T11:05:49;16.00;99.90
44990;DHT22;30723;51.206;3.326;2023-08-06T11:08:32;16.00;99.90
44990;DHT22;30723;51.206;3.326;2023-08-06T11:11:10;16.20;99.90
44990;DHT22;30723;51.206;3.326;2023-08-06T11:13:47;16.20;99.90
44990;DHT22;30723;51.206;3.326;2023-08-06T11:16:19;16.40;99.90
44990;DHT22;30723;51.206;3.326;2023-08-06T11:18:47;16.50;99.90
44990;DHT22;30723;51.206;3.326;2023-08-06T11:21:14;16.70;99.90
44990;DHT22;30723;51.206;3.326;2023-08-06T11:23:44;16.80;99.90
44990;DHT22;30723;51.206;3.326;2023-08-06T11:26:11;16.80;99.90
44990;DHT22;30723;51.206;3.326;2023-08-06T11:28:37;16.50;99.90
44990;DHT22;30723;51.206;3.326;2023-08-06T11:31:05;16.20;99.90
44990;DHT22;30723;51.206;3.326;2023-08-06T11:33:32;16.10;99.90
44990;DHT22;30723;51.206;3.326;2023-08-06T11:36:00;16.10;99.90
44990;DHT22;30723;51.206;3.326;2023-08-06T11:38:30;16.00;99.90
44990;DHT22;30723;51.206;3.326;2023-08-06T11:40:57;16.10;99.90
44990;DHT22;30723;51.206;3.326;2023-08-06T11:43:24;16.30;99.90
44990;DHT22;30723;51.206;3.326;2023-08-06T11:45:52;16.70;99.90
44990;DHT22;30723;51.206;3.326;2023-08-06T11:48:20;16.80;99.90
44990;DHT22;30723;51.206;3.326;2023-08-06T11:50:47;16.90;99.90
44990;DHT22;30723;51.206;3.326;2023-08-06T11:53:14;16.80;99.90
44990;DHT22;30723;51.206;3.326;2023-08-06T11:55:41;16.80;99.90
44990;DHT22;30723;51.206;3.326;2023-08-06T11:58:10;16.80;99.90
44990;DHT22;30723;51.206;3.326;2023-08-06T12:00:41;16.80;99.90
44990;DHT22;30723;51.206;3.326;2023-08-06T12:03:09;16.80;99.90
44990;DHT22;30723;51.206;3.326;2023-08-06T12:05:36;16.70;99.90
44990;DHT22;30723;51.206;3.326;2023-08-06T12:08:05;16.70;99.90
44990;DHT22;30723;51.206;3.326;2023-08-06T12:10:33;16.70;99.90
44990;DHT22;30723;51.206;3.326;2023-08-06T12:13:00;16.70;99.90
44990;DHT22;30723;51.206;3.326;2023-08-06T12:15:26;16.70;99.90
44990;DHT22;30723;51.206;3.326;2023-08-06T12:17:53;16.70;99.90
44990;DHT22;30723;51.206;3.326;2023-08-06T12:20:20;16.70;99.90
44990;DHT22;30723;51.206;3.326;2023-08-06T12:22:46;16.70;99.90
44990;DHT22;30723;51.206;3.326;2023-08-06T12:25:13;16.70;99.90
44990;DHT22;30723;51.206;3.326;2023-08-06T12:27:59;16.70;99.90
44990;DHT22;30723;51.206;3.326;2023-08-06T12:30:26;16.50;99.90
44990;DHT22;30723;51.206;3.326;2023-08-06T12:32:53;16.50;99.90
44990;DHT22;30723;51.206;3.326;2023-08-06T12:35:19;16.70;99.90
44990;DHT22;30723;51.206;3.326;2023-08-06T12:37:47;16.80;99.90
44990;DHT22;30723;51.206;3.326;2023-08-06T12:40:14;16.80;99.90
44990;DHT22;30723;51.206;3.326;2023-08-06T12:42:40;16.70;99.90
44990;DHT22;30723;51.206;3.326;2023-08-06T12:45:07;16.50;99.90
44990;DHT22;30723;51.206;3.326;2023-08-06T12:47:33;16.50;99.90
44990;DHT22;30723;51.206;3.326;2023-08-06T12:49:59;16.40;99.90
44990;DHT22;30723;51.206;3.326;2023-08-06T12:52:29;16.20;99.90
44990;DHT22;30723;51.206;3.326;2023-08-06T12:54:56;15.90;99.90
44990;DHT22;30723;51.206;3.326;2023-08-06T12:57:23;15.90;99.90
44990;DHT22;30723;51.206;3.326;2023-08-06T12:59:50;15.90;99.90
44990;DHT22;30723;51.206;3.326;2023-08-06T13:02:16;15.90;99.90
44990;DHT22;30723;51.206;3.326;2023-08-06T13:04:42;16.20;99.90
44990;DHT22;30723;51.206;3.326;2023-08-06T13:07:08;16.40;99.90
44990;DHT22;30723;51.206;3.326;2023-08-06T13:09:35;16.60;99.90
44990;DHT22;30723;51.206;3.326;2023-08-06T13:12:02;16.70;99.90
44990;DHT22;30723;51.206;3.326;2023-08-06T13:14:32;16.70;99.90
44990;DHT22;30723;51.206;3.326;2023-08-06T13:17:00;16.90;99.90
44990;DHT22;30723;51.206;3.326;2023-08-06T13:19:27;16.90;99.90
44990;DHT22;30723;51.206;3.326;2023-08-06T13:22:03;16.80;99.90
44990;DHT22;30723;51.206;3.326;2023-08-06T13:24:31;16.50;99.90
44990;DHT22;30723;51.206;3.326;2023-08-06T13:26:58;16.40;99.90
44990;DHT22;30723;51.206;3.326;2023-08-06T13:29:25;16.30;99.90
44990;DHT22;30723;51.206;3.326;2023-08-06T13:31:52;16.30;99.90
44990;DHT22;30723;51.206;3.326;2023-08-06T13:34:18;16.50;99.90
44990;DHT22;30723;51.206;3.326;2023-08-06T13:36:45;16.60;99.90
44990;DHT22;30723;51.206;3.326;2023-08-06T13:39:12;16.80;99.90
44990;DHT22;30723;51.206;3.326;2023-08-06T13:41:39;16.80;99.90
44990;DHT22;30723;51.206;3.326;2023-08-06T13:44:05;16.80;99.90
44990;DHT22;30723;51.206;3.326;2023-08-06T13:46:33;17.10;99.90
44990;DHT22;30723;51.206;3.326;2023-08-06T13:49:00;17.40;99.90
44990;DHT22;30723;51.206;3.326;2023-08-06T13:51:26;17.80;99.90
44990;DHT22;30723;51.206;3.326;2023-08-06T13:53:53;18.30;99.90
44990;DHT22;30723;51.206;3.326;2023-08-06T13:56:21;19.20;99.90
44990;DHT22;30723;51.206;3.326;2023-08-06T13:58:47;19.70;99.90
44990;DHT22;30723;51.206;3.326;2023-08-06T14:01:17;19.90;99.90
44990;DHT22;30723;51.206;3.326;2023-08-06T14:03:46;20.10;99.90
44990;DHT22;30723;51.206;3.326;2023-08-06T14:06:13;19.90;99.90
44990;DHT22;30723;51.206;3.326;2023-08-06T14:08:40;19.80;99.90
44990;DHT22;30723;51.206;3.326;2023-08-06T14:11:06;20.10;99.90
44990;DHT22;30723;51.206;3.326;2023-08-06T14:13:33;20.00;99.90
44990;DHT22;30723;51.206;3.326;2023-08-06T14:16:00;19.60;99.90
44990;DHT22;30723;51.206;3.326;2023-08-06T14:18:27;19.40;99.90
44990;DHT22;30723;51.206;3.326;2023-08-06T14:20:54;19.10;99.90
44990;DHT22;30723;51.206;3.326;2023-08-06T14:23:21;18.90;99.90
44990;DHT22;30723;51.206;3.326;2023-08-06T14:25:47;18.80;99.90
44990;DHT22;30723;51.206;3.326;2023-08-06T14:28:14;18.60;99.90
44990;DHT22;30723;51.206;3.326;2023-08-06T14:30:41;18.50;99.90
44990;DHT22;30723;51.206;3.326;2023-08-06T14:33:08;18.50;99.90
44990;DHT22;30723;51.206;3.326;2023-08-06T14:35:35;18.50;99.90
44990;DHT22;30723;51.206;3.326;2023-08-06T14:38:02;18.40;99.90
44990;DHT22;30723;51.206;3.326;2023-08-06T14:40:28;18.20;99.90
44990;DHT22;30723;51.206;3.326;2023-08-06T14:43:00;18.20;99.90
44990;DHT22;30723;51.206;3.326;2023-08-06T14:45:28;18.40;99.90
44990;DHT22;30723;51.206;3.326;2023-08-06T14:47:55;18.50;99.90
44990;DHT22;30723;51.206;3.326;2023-08-06T14:50:23;18.50;99.90
44990;DHT22;30723;51.206;3.326;2023-08-06T14:52:49;18.30;99.90
44990;DHT22;30723;51.206;3.326;2023-08-06T14:55:38;18.30;99.90
44990;DHT22;30723;51.206;3.326;2023-08-06T14:58:05;18.30;99.90
44990;DHT22;30723;51.206;3.326;2023-08-06T15:00:31;18.20;99.90
44990;DHT22;30723;51.206;3.326;2023-08-06T15:02:58;18.00;99.90
44990;DHT22;30723;51.206;3.326;2023-08-06T15:05:26;17.70;99.90
44990;DHT22;30723;51.206;3.326;2023-08-06T15:07:53;17.60;99.90
44990;DHT22;30723;51.206;3.326;2023-08-06T15:10:20;17.80;99.90
44990;DHT22;30723;51.206;3.326;2023-08-06T15:12:47;17.70;99.90
44990;DHT22;30723;51.206;3.326;2023-08-06T15:15:15;17.70;99.90
44990;DHT22;30723;51.206;3.326;2023-08-06T15:17:41;17.70;99.90
44990;DHT22;30723;51.206;3.326;2023-08-06T15:20:10;17.60;99.90
44990;DHT22;30723;51.206;3.326;2023-08-06T15:22:37;17.60;99.90
44990;DHT22;30723;51.206;3.326;2023-08-06T15:25:05;17.60;99.90
44990;DHT22;30723;51.206;3.326;2023-08-06T15:27:31;17.60;99.90
44990;DHT22;30723;51.206;3.326;2023-08-06T15:29:59;17.50;99.90
44990;DHT22;30723;51.206;3.326;2023-08-06T15:32:26;17.50;99.90
44990;DHT22;30723;51.206;3.326;2023-08-06T15:34:54;17.60;99.90
44990;DHT22;30723;51.206;3.326;2023-08-06T15:37:21;17.50;99.90
44990;DHT22;30723;51.206;3.326;2023-08-06T15:39:48;17.60;99.90
44990;DHT22;30723;51.206;3.326;2023-08-06T15:42:15;17.80;99.90
44990;DHT22;30723;51.206;3.326;2023-08-06T15:44:41;17.90;99.90
44990;DHT22;30723;51.206;3.326;2023-08-06T15:47:08;17.90;99.90
44990;DHT22;30723;51.206;3.326;2023-08-06T15:49:35;18.00;99.90
44990;DHT22;30723;51.206;3.326;2023-08-06T15:52:02;18.00;99.90